Terminal Aerodrome Forecast
Issued by NWS Newport/Morehead City, NC

Home | Current Version | Previous Version | Text Only | Print | Product List | Glossary Off
Versions: 1 2 3 4 5 6 7 8 9 10 11 12 13 14

000
FTUS42 KMHX 160534
TAFEWN
TAF
KEWN 160534Z 1606/1706 05007KT P6SM -RA SCT015 OVC050
     FM161500 10013G20KT P6SM SCT020 OVC050
     FM162300 08006KT P6SM SCT020 OVC050=

USA.gov is the U.S. government's official web portal to all federal, state and local government web resources and services.